x

Portland 12 Nm Southeast Of Portland,me (44007) Wave Buoy

9:50am - Fri 24th Nov 2017 All times are EST. -5 hours from GMT.

  • Sig Wave height 3.3ft
  • Swell Direction
  • Peak Period 10s
  • Average Period 5s
  • Wind
    13mph, 16mph gusts
  • Sea Temp 47°f
  • Air Temp 37°f
  • Sea Pressure 1015.2mb
  • Portland 12 Nm Southeast Of Portland,me
  • Portland 12 Nm Southeast Of Portland,me

More Historic Weather Station data

Upgrade to MSW Pro to gain access to the past 30 days of data for over 8000 Wavebouys and Weather Stations around the globe.

Join

Comparision Forecast

View Surf forecast
   
Fri 11/24 9:50am 3.5ft 10s 5s 13 16 mph 1015.2mb 47f 37f
8:50am 4ft 10s 6s 16 18 mph 1015.1mb 47f 37f
7:50am 4.5ft 10s 6s 16 20 mph 1014.6mb 47f 37f
6:50am 4ft 10s 5s 18 22 mph 1014mb 47f 37f
5:50am 3.5ft 10s 5s 20 22 mph 1013.6mb 47f 37f
4:50am 3.5ft 10s 5s 18 22 mph 1013.3mb 47f 36f
3:50am 3.5ft 10s 5s 18 22 mph 1013.5mb 47f 36f
2:50am 3.5ft 11s 6s 20 25 mph 1013.1mb 47f 37f
1:50am 3ft 10s 6s 18 20 mph 1013.2mb 47f 36f
12:50am 3.5ft 10s 7s 13 18 mph 1013.4mb 47f 36f
Thu 11/23 11:50pm 3.5ft 10s 8s 11 16 mph 1014.1mb 47f 35f
10:50pm 3.5ft 11s 8s 9 11 mph 1013.7mb 47f 35f
9:50pm 4ft 10s 8s 9 11 mph 1014mb 48f 35f
8:50pm 4.5ft 10s 8s 13 16 mph 1014.2mb 48f 35f
7:50pm 4ft 10s 8s 11 16 mph 1014.5mb 48f 35f
6:50pm 4ft 10s 8s 13 16 mph 1014.4mb 48f 36f
5:50pm 3.5ft 11s 9s 16 18 mph 1014.3mb 48f 37f
4:50pm 3.5ft 11s 9s 4 7 mph 1014.1mb 48f 39f
3:50pm 3.5ft 11s 10s 7 9 mph 1014mb 48f 38f
2:50pm 3.5ft 11s 10s 4 9 mph 1014.1mb 48f 38f
1:50pm 3ft 11s 9s 7 9 mph 1013.8mb 48f 38f
12:50pm 3.5ft 12s 9s 9 11 mph 1014.2mb 48f 37f
11:50am 3ft 12s 8s 7 11 mph 1014.1mb 48f 36f
10:50am 3ft 11s 8s 9 13 mph 1015mb 48f 34f
9:50am 2.5ft 11s 6s 9 11 mph 1015.3mb 48f 33f
8:50am 1.6ft 12s 4s 11 16 mph 1015.5mb 48f 32f
7:50am 1.3ft 13s 3s 13 16 mph 1015.6mb 48f 32f
6:50am 1.3ft 3s 3s 11 13 mph 1015.2mb 48f 33f
5:50am 1.3ft 3s 3s 11 13 mph 1014.2mb 48f 33f
4:50am 1.3ft 11s 3s 11 16 mph 1013.8mb 48f 34f
3:50am 1.3ft 11s 3s 13 18 mph 1013.1mb 48f 36f
2:50am 1.3ft 2s 3s 11 16 mph 1012.7mb 48f 37f
1:50am 1.3ft 3s 3s 13 18 mph 1012.1mb 48f 37f
12:50am 1.3ft 3s 3s 16 20 mph 1011mb 48f 38f
Wed 11/22 11:50pm 1.3ft 3s 3s 16 18 mph 1010.4mb 48f 39f
10:50pm 2ft 3s 3s 20 25 mph 1009.5mb 49f 40f
9:50pm 2.5ft 3s 3s 22 27 mph 1009.4mb 49f 40f
8:50pm 2.5ft 3s 3s 22 27 mph 1009mb 49f 41f
7:50pm 3ft 3s 4s 27 31 mph 1008.3mb 49f 41f
6:50pm 2.5ft 3s 4s 27 34 mph 1007.8mb 49f 42f
5:50pm 2.5ft 3s 4s 25 29 mph 1007.9mb 49f 43f
4:50pm 2.5ft 6s 4s 20 22 mph 1008.1mb 49f 43f
3:50pm 2.5ft 6s 4s 18 22 mph 1007.5mb 49f 44f
2:50pm 2.5ft 6s 4s 16 18 mph 1007.5mb 49f 44f
1:50pm 3ft 6s 4s 11 13 mph 1008.4mb 49f 45f
12:50pm 3ft 7s 4s 13 16 mph 1009.4mb 49f 51f
11:50am 3ft 7s 4s 13 16 mph 1010.2mb 49f 51f
10:50am 3ft 6s 5s 9 9 mph 1011.7mb 48f 51f
9:50am 3ft 7s 5s 2 4 mph 1013.1mb 48f 49f
8:50am 3ft 7s 5s 2 4 mph 1013.8mb 48f 49f
7:50am 3ft 6s 5s 2 2 mph 1014.3mb 48f 48f
6:50am 3.5ft 5s 4s 4 4 mph 1014.5mb 48f 48f
5:50am 3.5ft 6s 5s 9 11 mph 1015mb 48f 49f
4:50am 4ft 6s 5s 11 13 mph 1014.9mb 49f 49f
3:50am 3.5ft 6s 4s 13 18 mph 1014.9mb 49f 49f
2:50am 4ft 6s 4s 18 20 mph 1014.7mb 49f 50f
1:50am 4ft 6s 5s 16 18 mph 1014.9mb 49f 49f
12:50am 4.5ft 6s 5s 18 22 mph 1015.1mb 49f 50f
Tue 11/21 11:50pm 4.5ft 7s 5s 20 25 mph 1014.9mb 49f 50f
10:50pm 5ft 6s 5s 20 22 mph 1014.7mb 49f 50f
9:50pm 5.5ft 7s 5s 22 27 mph 1014.5mb 49f 51f
8:50pm 6ft 7s 5s 20 25 mph 1015mb 49f 51f
7:50pm 6ft 6s 5s 20 25 mph 1014.9mb 49f 51f
6:50pm 6ft 6s 5s 22 25 mph 1014.5mb 49f 51f
5:50pm 6ft 6s 5s 25 31 mph 1013.6mb 49f 52f
4:50pm 6ft 6s 5s 27 34 mph 1012.9mb 49f 52f
3:50pm 5ft 6s 5s 20 25 mph 1013.2mb 49f 52f
2:50pm 5ft 6s 4s 22 27 mph 1013.3mb 49f 52f
1:50pm 4ft 6s 5s 20 25 mph 1013.6mb 49f 51f
12:50pm 5ft 5s 4s 18 20 mph 1015mb 49f 47f
11:50am 4.5ft 5s 4s 25 29 mph 1015.4mb 49f 46f
10:50am 3.5ft 5s 4s 22 25 mph 1016.9mb 49f 44f
9:50am 3ft 5s 4s 20 22 mph 1017.9mb 49f 44f
8:50am 3ft 5s 4s 16 20 mph 1018.3mb 49f 44f
7:50am 3ft 5s 4s 18 22 mph 1018.6mb 49f 43f
6:50am 3ft 5s 4s 18 20 mph 1018.3mb 49f 43f
5:50am 2.5ft 5s 4s 11 18 mph 1018.2mb 49f 42f
4:50am 2.5ft 6s 5s 11 13 mph 1018mb 49f 41f
3:50am 2.5ft 10s 4s 9 11 mph 1017.8mb 48f 40f
2:50am 2ft 11s 4s 11 13 mph 1018.1mb 48f 39f
1:50am 2ft 6s 4s 11 16 mph 1018.1mb 49f 38f
12:50am 2.5ft 4s 4s 16 20 mph 1017.1mb 49f 37f
Mon 11/20 11:50pm 2.5ft 3s 4s 18 22 mph 1016.8mb 49f 37f
10:50pm 2.5ft 10s 4s 16 20 mph 1016mb 49f 37f
9:50pm 3ft 11s 4s 18 22 mph 1015.5mb 49f 37f
8:50pm 3ft 10s 4s 22 27 mph 1014.4mb 49f 37f
7:50pm 2.5ft 10s 4s 25 31 mph 1013.8mb 48f 38f
6:50pm 2.5ft 11s 4s 20 25 mph 1013.2mb 49f 37f
5:50pm 2ft 11s 4s 11 16 mph 1012.7mb 49f 37f
4:50pm 2.5ft 10s 4s 16 20 mph 1011.4mb 49f 37f